sensor_id;sensor_type;location;lat;lon;timestamp;P1;durP1;ratioP1;P2;durP2;ratioP2
45714;SDS011;31430;61.646;24.704;2023-03-22T00:01:59;44.75;;;41.95;;
45714;SDS011;31430;61.646;24.704;2023-03-22T00:04:25;44.45;;;41.67;;
45714;SDS011;31430;61.646;24.704;2023-03-22T00:09:17;44.75;;;41.95;;
45714;SDS011;31430;61.646;24.704;2023-03-22T00:11:43;45.00;;;42.20;;
45714;SDS011;31430;61.646;24.704;2023-03-22T00:14:08;43.90;;;41.17;;
45714;SDS011;31430;61.646;24.704;2023-03-22T00:19:00;45.00;;;42.20;;
45714;SDS011;31430;61.646;24.704;2023-03-22T00:21:26;44.38;;;41.60;;
45714;SDS011;31430;61.646;24.704;2023-03-22T00:23:51;43.22;;;40.53;;
45714;SDS011;31430;61.646;24.704;2023-03-22T00:28:42;45.30;;;42.50;;
45714;SDS011;31430;61.646;24.704;2023-03-22T00:31:08;44.30;;;41.53;;
45714;SDS011;31430;61.646;24.704;2023-03-22T00:33:35;43.45;;;40.75;;
45714;SDS011;31430;61.646;24.704;2023-03-22T00:36:03;43.00;;;40.30;;
45714;SDS011;31430;61.646;24.704;2023-03-22T00:38:30;42.10;;;39.50;;
45714;SDS011;31430;61.646;24.704;2023-03-22T00:41:34;41.90;;;39.30;;
45714;SDS011;31430;61.646;24.704;2023-03-22T00:43:52;45.22;;;42.42;;
45714;SDS011;31430;61.646;24.704;2023-03-22T00:48:44;45.00;;;42.20;;
45714;SDS011;31430;61.646;24.704;2023-03-22T00:53:37;47.25;;;44.33;;
45714;SDS011;31430;61.646;24.704;2023-03-22T00:56:03;46.13;;;43.25;;
45714;SDS011;31430;61.646;24.704;2023-03-22T00:58:30;43.08;;;40.38;;
45714;SDS011;31430;61.646;24.704;2023-03-22T01:00:56;44.33;;;41.58;;
45714;SDS011;31430;61.646;24.704;2023-03-22T01:03:21;45.08;;;42.28;;
45714;SDS011;31430;61.646;24.704;2023-03-22T01:05:50;44.13;;;41.38;;
45714;SDS011;31430;61.646;24.704;2023-03-22T01:08:19;42.95;;;40.28;;
45714;SDS011;31430;61.646;24.704;2023-03-22T01:10:47;42.20;;;39.60;;
45714;SDS011;31430;61.646;24.704;2023-03-22T01:13:12;42.78;;;40.08;;
45714;SDS011;31430;61.646;24.704;2023-03-22T01:15:38;42.03;;;39.42;;
45714;SDS011;31430;61.646;24.704;2023-03-22T01:18:05;41.97;;;39.38;;
45714;SDS011;31430;61.646;24.704;2023-03-22T01:20:31;41.90;;;39.30;;
45714;SDS011;31430;61.646;24.704;2023-03-22T01:25:23;44.20;;;41.45;;
45714;SDS011;31430;61.646;24.704;2023-03-22T01:27:49;43.40;;;40.70;;
45714;SDS011;31430;61.646;24.704;2023-03-22T01:30:15;41.75;;;39.15;;
45714;SDS011;31430;61.646;24.704;2023-03-22T01:32:40;42.08;;;39.47;;
45714;SDS011;31430;61.646;24.704;2023-03-22T01:35:07;41.70;;;39.10;;
45714;SDS011;31430;61.646;24.704;2023-03-22T01:37:33;42.63;;;39.97;;
45714;SDS011;31430;61.646;24.704;2023-03-22T01:39:59;43.95;;;41.22;;
45714;SDS011;31430;61.646;24.704;2023-03-22T01:42:25;42.47;;;39.85;;
45714;SDS011;31430;61.646;24.704;2023-03-22T01:47:39;43.08;;;40.38;;
45714;SDS011;31430;61.646;24.704;2023-03-22T01:50:08;43.65;;;40.95;;
45714;SDS011;31430;61.646;24.704;2023-03-22T01:52:34;42.65;;;40.00;;
45714;SDS011;31430;61.646;24.704;2023-03-22T01:55:02;43.00;;;40.30;;
45714;SDS011;31430;61.646;24.704;2023-03-22T01:57:30;42.33;;;39.70;;
45714;SDS011;31430;61.646;24.704;2023-03-22T02:00:02;42.65;;;40.00;;
45714;SDS011;31430;61.646;24.704;2023-03-22T02:02:33;42.78;;;40.10;;
45714;SDS011;31430;61.646;24.704;2023-03-22T02:04:58;42.50;;;39.85;;
45714;SDS011;31430;61.646;24.704;2023-03-22T02:07:25;41.65;;;39.05;;
45714;SDS011;31430;61.646;24.704;2023-03-22T02:09:51;44.20;;;41.45;;
45714;SDS011;31430;61.646;24.704;2023-03-22T02:18:13;43.83;;;41.10;;
45714;SDS011;31430;61.646;24.704;2023-03-22T02:21:33;43.63;;;40.92;;
45714;SDS011;31430;61.646;24.704;2023-03-22T02:40:33;43.60;;;40.90;;
45714;SDS011;31430;61.646;24.704;2023-03-22T02:48:13;42.38;;;39.75;;
45714;SDS011;31430;61.646;24.704;2023-03-22T02:50:50;41.78;;;39.17;;
45714;SDS011;31430;61.646;24.704;2023-03-22T02:53:23;41.10;;;38.53;;
45714;SDS011;31430;61.646;24.704;2023-03-22T02:55:59;41.90;;;39.30;;
45714;SDS011;31430;61.646;24.704;2023-03-22T02:58:36;42.83;;;40.15;;
45714;SDS011;31430;61.646;24.704;2023-03-22T03:01:11;41.92;;;39.33;;
45714;SDS011;31430;61.646;24.704;2023-03-22T03:03:44;41.70;;;39.10;;
45714;SDS011;31430;61.646;24.704;2023-03-22T03:06:15;41.75;;;39.15;;
45714;SDS011;31430;61.646;24.704;2023-03-22T03:08:43;42.25;;;39.63;;
45714;SDS011;31430;61.646;24.704;2023-03-22T03:11:12;41.92;;;39.33;;
45714;SDS011;31430;61.646;24.704;2023-03-22T03:13:38;41.60;;;39.00;;
45714;SDS011;31430;61.646;24.704;2023-03-22T03:18:53;44.13;;;41.38;;
45714;SDS011;31430;61.646;24.704;2023-03-22T03:29:47;41.30;;;38.72;;
45714;SDS011;31430;61.646;24.704;2023-03-22T03:32:20;41.47;;;38.88;;
45714;SDS011;31430;61.646;24.704;2023-03-22T03:37:56;43.22;;;40.53;;
45714;SDS011;31430;61.646;24.704;2023-03-22T03:40:29;43.00;;;40.30;;
45714;SDS011;31430;61.646;24.704;2023-03-22T03:43:02;40.63;;;38.10;;
45714;SDS011;31430;61.646;24.704;2023-03-22T03:45:28;41.30;;;38.72;;
45714;SDS011;31430;61.646;24.704;2023-03-22T03:47:59;41.17;;;38.60;;
45714;SDS011;31430;61.646;24.704;2023-03-22T03:50:28;42.15;;;39.53;;
45714;SDS011;31430;61.646;24.704;2023-03-22T03:52:55;41.33;;;38.75;;
45714;SDS011;31430;61.646;24.704;2023-03-22T03:57:47;43.72;;;41.03;;
45714;SDS011;31430;61.646;24.704;2023-03-22T04:02:41;44.72;;;41.92;;
45714;SDS011;31430;61.646;24.704;2023-03-22T04:05:08;42.60;;;39.95;;
45714;SDS011;31430;61.646;24.704;2023-03-22T04:07:35;42.88;;;40.20;;
45714;SDS011;31430;61.646;24.704;2023-03-22T04:10:02;42.88;;;40.20;;
45714;SDS011;31430;61.646;24.704;2023-03-22T04:12:28;41.13;;;38.55;;
45714;SDS011;31430;61.646;24.704;2023-03-22T04:14:55;41.30;;;38.70;;
45714;SDS011;31430;61.646;24.704;2023-03-22T04:19:46;45.97;;;43.10;;
45714;SDS011;31430;61.646;24.704;2023-03-22T04:22:13;44.08;;;41.33;;
45714;SDS011;31430;61.646;24.704;2023-03-22T04:24:42;42.40;;;39.78;;
45714;SDS011;31430;61.646;24.704;2023-03-22T04:27:14;41.60;;;39.00;;
45714;SDS011;31430;61.646;24.704;2023-03-22T04:29:41;41.58;;;38.97;;
45714;SDS011;31430;61.646;24.704;2023-03-22T04:32:12;43.10;;;40.40;;
45714;SDS011;31430;61.646;24.704;2023-03-22T04:34:43;42.20;;;39.60;;
45714;SDS011;31430;61.646;24.704;2023-03-22T04:37:10;40.33;;;37.83;;
45714;SDS011;31430;61.646;24.704;2023-03-22T04:39:36;41.20;;;38.63;;
45714;SDS011;31430;61.646;24.704;2023-03-22T04:44:28;44.70;;;41.90;;
45714;SDS011;31430;61.646;24.704;2023-03-22T04:46:54;44.90;;;42.10;;
45714;SDS011;31430;61.646;24.704;2023-03-22T04:49:20;43.45;;;40.75;;
45714;SDS011;31430;61.646;24.704;2023-03-22T04:51:46;42.03;;;39.42;;
45714;SDS011;31430;61.646;24.704;2023-03-22T04:56:37;44.45;;;41.67;;
45714;SDS011;31430;61.646;24.704;2023-03-22T05:01:28;45.30;;;42.50;;
45714;SDS011;31430;61.646;24.704;2023-03-22T05:06:20;44.92;;;42.13;;
45714;SDS011;31430;61.646;24.704;2023-03-22T05:11:12;43.33;;;40.63;;
45714;SDS011;31430;61.646;24.704;2023-03-22T05:13:43;44.28;;;41.50;;
45714;SDS011;31430;61.646;24.704;2023-03-22T05:18:35;46.42;;;43.53;;
45714;SDS011;31430;61.646;24.704;2023-03-22T05:21:08;42.60;;;39.95;;
45714;SDS011;31430;61.646;24.704;2023-03-22T05:23:39;43.55;;;40.85;;
45714;SDS011;31430;61.646;24.704;2023-03-22T05:26:09;41.83;;;39.22;;
45714;SDS011;31430;61.646;24.704;2023-03-22T05:28:39;41.67;;;39.08;;
45714;SDS011;31430;61.646;24.704;2023-03-22T05:33:32;43.42;;;40.72;;
45714;SDS011;31430;61.646;24.704;2023-03-22T05:35:59;44.10;;;41.35;;
45714;SDS011;31430;61.646;24.704;2023-03-22T05:38:25;41.78;;;39.17;;
45714;SDS011;31430;61.646;24.704;2023-03-22T05:40:51;41.70;;;39.10;;
45714;SDS011;31430;61.646;24.704;2023-03-22T05:45:42;42.55;;;39.90;;
45714;SDS011;31430;61.646;24.704;2023-03-22T05:48:10;42.50;;;39.88;;
45714;SDS011;31430;61.646;24.704;2023-03-22T05:50:36;41.50;;;38.90;;
45714;SDS011;31430;61.646;24.704;2023-03-22T05:53:02;41.95;;;39.35;;
45714;SDS011;31430;61.646;24.704;2023-03-22T05:57:56;42.45;;;39.83;;
45714;SDS011;31430;61.646;24.704;2023-03-22T06:00:23;40.65;;;38.13;;
45714;SDS011;31430;61.646;24.704;2023-03-22T06:02:49;39.90;;;37.40;;
45714;SDS011;31430;61.646;24.704;2023-03-22T06:05:20;39.13;;;36.70;;
45714;SDS011;31430;61.646;24.704;2023-03-22T06:07:46;40.70;;;38.17;;
45714;SDS011;31430;61.646;24.704;2023-03-22T06:12:38;42.35;;;39.72;;
45714;SDS011;31430;61.646;24.704;2023-03-22T06:17:30;43.65;;;40.95;;
45714;SDS011;31430;61.646;24.704;2023-03-22T06:22:21;44.08;;;41.33;;
45714;SDS011;31430;61.646;24.704;2023-03-22T06:27:13;43.88;;;41.15;;
45714;SDS011;31430;61.646;24.704;2023-03-22T06:29:39;40.58;;;38.05;;
45714;SDS011;31430;61.646;24.704;2023-03-22T06:34:31;43.35;;;40.65;;
45714;SDS011;31430;61.646;24.704;2023-03-22T06:36:57;39.85;;;37.35;;
45714;SDS011;31430;61.646;24.704;2023-03-22T06:41:49;42.55;;;39.90;;
45714;SDS011;31430;61.646;24.704;2023-03-22T06:46:40;43.40;;;40.70;;
45714;SDS011;31430;61.646;24.704;2023-03-22T06:51:32;42.53;;;39.88;;
45714;SDS011;31430;61.646;24.704;2023-03-22T06:53:58;39.85;;;37.35;;
45714;SDS011;31430;61.646;24.704;2023-03-22T06:58:51;40.73;;;38.20;;
45714;SDS011;31430;61.646;24.704;2023-03-22T07:01:18;39.53;;;37.05;;
45714;SDS011;31430;61.646;24.704;2023-03-22T07:03:44;40.28;;;37.78;;
45714;SDS011;31430;61.646;24.704;2023-03-22T07:08:36;41.45;;;38.85;;
45714;SDS011;31430;61.646;24.704;2023-03-22T07:13:28;40.23;;;37.73;;
45714;SDS011;31430;61.646;24.704;2023-03-22T07:18:21;41.00;;;38.45;;
45714;SDS011;31430;61.646;24.704;2023-03-22T07:23:12;40.72;;;38.20;;
45714;SDS011;31430;61.646;24.704;2023-03-22T07:25:39;40.53;;;38.03;;
45714;SDS011;31430;61.646;24.704;2023-03-22T07:30:31;41.55;;;38.95;;
45714;SDS011;31430;61.646;24.704;2023-03-22T07:33:00;39.33;;;36.88;;
45714;SDS011;31430;61.646;24.704;2023-03-22T07:35:25;38.47;;;36.08;;
45714;SDS011;31430;61.646;24.704;2023-03-22T07:40:17;38.20;;;35.80;;
45714;SDS011;31430;61.646;24.704;2023-03-22T07:42:43;37.28;;;34.97;;
45714;SDS011;31430;61.646;24.704;2023-03-22T07:45:09;36.78;;;34.47;;
45714;SDS011;31430;61.646;24.704;2023-03-22T07:47:35;35.88;;;33.65;;
45714;SDS011;31430;61.646;24.704;2023-03-22T07:50:00;37.22;;;34.92;;
45714;SDS011;31430;61.646;24.704;2023-03-22T07:52:26;36.28;;;34.00;;
45714;SDS011;31430;61.646;24.704;2023-03-22T07:54:52;36.55;;;34.25;;
45714;SDS011;31430;61.646;24.704;2023-03-22T07:57:18;36.58;;;34.28;;
45714;SDS011;31430;61.646;24.704;2023-03-22T08:02:09;37.95;;;35.58;;
45714;SDS011;31430;61.646;24.704;2023-03-22T08:04:35;38.53;;;36.13;;
45714;SDS011;31430;61.646;24.704;2023-03-22T08:09:27;40.13;;;37.63;;
45714;SDS011;31430;61.646;24.704;2023-03-22T08:14:18;39.10;;;36.67;;
45714;SDS011;31430;61.646;24.704;2023-03-22T08:19:10;40.17;;;37.67;;
45714;SDS011;31430;61.646;24.704;2023-03-22T08:21:36;39.25;;;36.80;;
45714;SDS011;31430;61.646;24.704;2023-03-22T08:26:28;39.78;;;37.30;;
45714;SDS011;31430;61.646;24.704;2023-03-22T08:31:20;39.75;;;37.25;;
45714;SDS011;31430;61.646;24.704;2023-03-22T08:33:46;38.10;;;35.70;;
45714;SDS011;31430;61.646;24.704;2023-03-22T08:36:17;37.10;;;34.80;;
45714;SDS011;31430;61.646;24.704;2023-03-22T08:38:44;35.63;;;33.42;;
45714;SDS011;31430;61.646;24.704;2023-03-22T08:41:13;36.60;;;34.30;;
45714;SDS011;31430;61.646;24.704;2023-03-22T08:43:40;37.10;;;34.80;;
45714;SDS011;31430;61.646;24.704;2023-03-22T08:46:06;36.70;;;34.40;;
45714;SDS011;31430;61.646;24.704;2023-03-22T08:48:32;35.33;;;33.13;;
45714;SDS011;31430;61.646;24.704;2023-03-22T08:51:01;35.10;;;32.90;;
45714;SDS011;31430;61.646;24.704;2023-03-22T08:53:28;35.40;;;33.20;;
45714;SDS011;31430;61.646;24.704;2023-03-22T08:58:22;37.17;;;34.88;;
45714;SDS011;31430;61.646;24.704;2023-03-22T09:00:48;35.83;;;33.60;;
45714;SDS011;31430;61.646;24.704;2023-03-22T09:03:14;35.63;;;33.42;;
45714;SDS011;31430;61.646;24.704;2023-03-22T09:05:40;35.45;;;33.25;;
45714;SDS011;31430;61.646;24.704;2023-03-22T09:10:32;36.13;;;33.88;;
45714;SDS011;31430;61.646;24.704;2023-03-22T09:12:59;34.53;;;32.38;;
45714;SDS011;31430;61.646;24.704;2023-03-22T09:17:50;38.10;;;35.70;;
45714;SDS011;31430;61.646;24.704;2023-03-22T09:20:16;35.92;;;33.67;;
45714;SDS011;31430;61.646;24.704;2023-03-22T09:22:43;35.40;;;33.20;;
45714;SDS011;31430;61.646;24.704;2023-03-22T09:27:34;37.00;;;34.70;;
45714;SDS011;31430;61.646;24.704;2023-03-22T09:32:26;37.97;;;35.60;;
45714;SDS011;31430;61.646;24.704;2023-03-22T09:34:51;35.75;;;33.53;;
45714;SDS011;31430;61.646;24.704;2023-03-22T09:37:18;35.03;;;32.83;;
45714;SDS011;31430;61.646;24.704;2023-03-22T09:39:44;35.22;;;33.03;;
45714;SDS011;31430;61.646;24.704;2023-03-22T09:42:53;35.35;;;33.15;;
45714;SDS011;31430;61.646;24.704;2023-03-22T09:45:12;34.15;;;32.03;;
45714;SDS011;31430;61.646;24.704;2023-03-22T09:47:43;35.00;;;32.80;;
45714;SDS011;31430;61.646;24.704;2023-03-22T09:50:12;34.67;;;32.50;;
45714;SDS011;31430;61.646;24.704;2023-03-22T09:52:42;33.90;;;31.80;;
45714;SDS011;31430;61.646;24.704;2023-03-22T09:58:00;34.53;;;32.35;;
45714;SDS011;31430;61.646;24.704;2023-03-22T10:00:47;35.15;;;32.95;;
45714;SDS011;31430;61.646;24.704;2023-03-22T10:06:27;35.90;;;33.67;;
45714;SDS011;31430;61.646;24.704;2023-03-22T10:16:52;36.35;;;34.08;;
45714;SDS011;31430;61.646;24.704;2023-03-22T10:20:06;35.47;;;33.28;;
45714;SDS011;31430;61.646;24.704;2023-03-22T10:22:23;35.22;;;33.03;;
45714;SDS011;31430;61.646;24.704;2023-03-22T10:24:53;35.55;;;33.35;;
45714;SDS011;31430;61.646;24.704;2023-03-22T10:27:21;36.60;;;34.30;;
45714;SDS011;31430;61.646;24.704;2023-03-22T10:29:58;34.67;;;32.50;;
45714;SDS011;31430;61.646;24.704;2023-03-22T10:32:44;34.67;;;32.50;;
45714;SDS011;31430;61.646;24.704;2023-03-22T10:35:15;35.40;;;33.20;;
45714;SDS011;31430;61.646;24.704;2023-03-22T10:37:42;35.67;;;33.47;;
45714;SDS011;31430;61.646;24.704;2023-03-22T10:40:14;34.78;;;32.58;;
45714;SDS011;31430;61.646;24.704;2023-03-22T10:42:50;35.17;;;32.97;;
45714;SDS011;31430;61.646;24.704;2023-03-22T10:45:19;35.63;;;33.42;;
45714;SDS011;31430;61.646;24.704;2023-03-22T10:50:42;35.17;;;32.97;;
45714;SDS011;31430;61.646;24.704;2023-03-22T10:56:10;36.45;;;34.15;;
45714;SDS011;31430;61.646;24.704;2023-03-22T10:58:39;36.67;;;34.38;;
45714;SDS011;31430;61.646;24.704;2023-03-22T11:03:51;37.70;;;35.35;;
45714;SDS011;31430;61.646;24.704;2023-03-22T11:06:27;36.75;;;34.45;;
45714;SDS011;31430;61.646;24.704;2023-03-22T11:08:58;37.05;;;34.75;;
45714;SDS011;31430;61.646;24.704;2023-03-22T11:16:18;38.90;;;36.50;;
45714;SDS011;31430;61.646;24.704;2023-03-22T11:18:45;37.50;;;35.20;;
45714;SDS011;31430;61.646;24.704;2023-03-22T11:21:11;36.45;;;34.17;;
45714;SDS011;31430;61.646;24.704;2023-03-22T11:23:40;36.13;;;33.88;;
45714;SDS011;31430;61.646;24.704;2023-03-22T11:26:12;35.45;;;33.25;;
45714;SDS011;31430;61.646;24.704;2023-03-22T11:28:46;35.88;;;33.65;;
45714;SDS011;31430;61.646;24.704;2023-03-22T11:31:15;35.92;;;33.70;;
45714;SDS011;31430;61.646;24.704;2023-03-22T11:33:55;34.67;;;32.50;;
45714;SDS011;31430;61.646;24.704;2023-03-22T11:36:23;35.60;;;33.40;;
45714;SDS011;31430;61.646;24.704;2023-03-22T11:38:56;35.08;;;32.88;;
45714;SDS011;31430;61.646;24.704;2023-03-22T11:41:28;35.30;;;33.10;;
45714;SDS011;31430;61.646;24.704;2023-03-22T11:44:05;36.25;;;33.97;;
45714;SDS011;31430;61.646;24.704;2023-03-22T11:46:34;35.97;;;33.72;;
45714;SDS011;31430;61.646;24.704;2023-03-22T11:49:03;35.92;;;33.70;;
45714;SDS011;31430;61.646;24.704;2023-03-22T11:51:33;35.45;;;33.25;;
45714;SDS011;31430;61.646;24.704;2023-03-22T11:56:31;35.45;;;33.25;;
45714;SDS011;31430;61.646;24.704;2023-03-22T11:59:02;35.50;;;33.30;;
45714;SDS011;31430;61.646;24.704;2023-03-22T12:01:51;36.00;;;33.75;;
45714;SDS011;31430;61.646;24.704;2023-03-22T12:04:30;37.42;;;35.10;;
45714;SDS011;31430;61.646;24.704;2023-03-22T12:07:00;36.42;;;34.15;;
45714;SDS011;31430;61.646;24.704;2023-03-22T12:09:37;36.90;;;34.60;;
45714;SDS011;31430;61.646;24.704;2023-03-22T12:12:23;36.28;;;34.00;;
45714;SDS011;31430;61.646;24.704;2023-03-22T12:17:34;36.90;;;34.60;;
45714;SDS011;31430;61.646;24.704;2023-03-22T12:20:42;36.75;;;34.45;;
45714;SDS011;31430;61.646;24.704;2023-03-22T12:23:18;36.85;;;34.55;;
45714;SDS011;31430;61.646;24.704;2023-03-22T12:26:02;35.90;;;33.67;;
45714;SDS011;31430;61.646;24.704;2023-03-22T12:28:41;36.60;;;34.30;;
45714;SDS011;31430;61.646;24.704;2023-03-22T12:31:24;36.47;;;34.17;;
45714;SDS011;31430;61.646;24.704;2023-03-22T12:33:56;36.88;;;34.58;;
45714;SDS011;31430;61.646;24.704;2023-03-22T12:36:34;37.20;;;34.90;;
45714;SDS011;31430;61.646;24.704;2023-03-22T12:39:07;37.00;;;34.70;;
45714;SDS011;31430;61.646;24.704;2023-03-22T12:41:39;37.03;;;34.72;;
45714;SDS011;31430;61.646;24.704;2023-03-22T12:51:52;37.97;;;35.60;;
45714;SDS011;31430;61.646;24.704;2023-03-22T12:54:37;37.20;;;34.90;;
45714;SDS011;31430;61.646;24.704;2023-03-22T12:57:03;37.45;;;35.13;;
45714;SDS011;31430;61.646;24.704;2023-03-22T12:59:30;36.85;;;34.55;;
45714;SDS011;31430;61.646;24.704;2023-03-22T13:04:32;37.65;;;35.30;;
45714;SDS011;31430;61.646;24.704;2023-03-22T13:09:47;37.22;;;34.92;;
45714;SDS011;31430;61.646;24.704;2023-03-22T13:27:56;40.03;;;37.53;;
45714;SDS011;31430;61.646;24.704;2023-03-22T13:43:51;37.75;;;35.40;;
45714;SDS011;31430;61.646;24.704;2023-03-22T13:53:36;40.28;;;37.78;;
45714;SDS011;31430;61.646;24.704;2023-03-22T13:56:05;38.90;;;36.50;;
45714;SDS011;31430;61.646;24.704;2023-03-22T14:01:22;37.00;;;34.70;;
45714;SDS011;31430;61.646;24.704;2023-03-22T14:04:03;38.00;;;35.60;;
45714;SDS011;31430;61.646;24.704;2023-03-22T14:06:40;38.42;;;36.03;;
45714;SDS011;31430;61.646;24.704;2023-03-22T14:09:18;38.65;;;36.25;;
45714;SDS011;31430;61.646;24.704;2023-03-22T14:11:54;37.53;;;35.20;;
45714;SDS011;31430;61.646;24.704;2023-03-22T14:14:27;37.08;;;34.78;;
45714;SDS011;31430;61.646;24.704;2023-03-22T14:19:35;37.80;;;35.45;;
45714;SDS011;31430;61.646;24.704;2023-03-22T14:22:03;37.92;;;35.55;;
45714;SDS011;31430;61.646;24.704;2023-03-22T14:24:35;37.30;;;35.00;;
45714;SDS011;31430;61.646;24.704;2023-03-22T14:29:46;41.40;;;38.80;;
45714;SDS011;31430;61.646;24.704;2023-03-22T14:32:14;39.65;;;37.17;;
45714;SDS011;31430;61.646;24.704;2023-03-22T14:34:43;38.85;;;36.45;;
45714;SDS011;31430;61.646;24.704;2023-03-22T14:37:13;39.00;;;36.60;;
45714;SDS011;31430;61.646;24.704;2023-03-22T14:39:42;38.50;;;36.10;;
45714;SDS011;31430;61.646;24.704;2023-03-22T14:42:27;38.10;;;35.70;;
45714;SDS011;31430;61.646;24.704;2023-03-22T14:45:00;37.30;;;35.00;;
45714;SDS011;31430;61.646;24.704;2023-03-22T14:47:32;37.55;;;35.22;;
45714;SDS011;31430;61.646;24.704;2023-03-22T14:50:06;36.83;;;34.53;;
45714;SDS011;31430;61.646;24.704;2023-03-22T14:52:34;37.42;;;35.10;;
45714;SDS011;31430;61.646;24.704;2023-03-22T14:55:06;37.92;;;35.53;;
45714;SDS011;31430;61.646;24.704;2023-03-22T14:57:45;38.08;;;35.70;;
45714;SDS011;31430;61.646;24.704;2023-03-22T15:00:17;37.75;;;35.40;;
45714;SDS011;31430;61.646;24.704;2023-03-22T15:02:46;37.55;;;35.22;;
45714;SDS011;31430;61.646;24.704;2023-03-22T15:05:19;37.25;;;34.95;;
45714;SDS011;31430;61.646;24.704;2023-03-22T15:07:50;37.08;;;34.78;;
45714;SDS011;31430;61.646;24.704;2023-03-22T15:10:21;37.80;;;35.45;;
45714;SDS011;31430;61.646;24.704;2023-03-22T15:12:50;39.38;;;36.92;;
45714;SDS011;31430;61.646;24.704;2023-03-22T15:15:20;38.10;;;35.70;;
45714;SDS011;31430;61.646;24.704;2023-03-22T15:17:50;37.67;;;35.33;;
45714;SDS011;31430;61.646;24.704;2023-03-22T15:20:18;37.60;;;35.28;;
45714;SDS011;31430;61.646;24.704;2023-03-22T15:22:53;38.38;;;35.97;;
45714;SDS011;31430;61.646;24.704;2023-03-22T15:25:26;38.20;;;35.80;;
45714;SDS011;31430;61.646;24.704;2023-03-22T15:27:58;38.30;;;35.90;;
45714;SDS011;31430;61.646;24.704;2023-03-22T15:30:25;38.67;;;36.28;;
45714;SDS011;31430;61.646;24.704;2023-03-22T15:32:51;37.20;;;34.90;;
45714;SDS011;31430;61.646;24.704;2023-03-22T15:35:25;37.55;;;35.22;;
45714;SDS011;31430;61.646;24.704;2023-03-22T15:37:51;37.78;;;35.42;;
45714;SDS011;31430;61.646;24.704;2023-03-22T15:40:26;37.95;;;35.55;;
45714;SDS011;31430;61.646;24.704;2023-03-22T15:43:05;38.60;;;36.20;;
45714;SDS011;31430;61.646;24.704;2023-03-22T15:51:10;37.95;;;35.58;;
45714;SDS011;31430;61.646;24.704;2023-03-22T15:53:38;38.20;;;35.80;;
45714;SDS011;31430;61.646;24.704;2023-03-22T15:56:04;38.67;;;36.28;;
45714;SDS011;31430;61.646;24.704;2023-03-22T15:58:31;38.17;;;35.78;;
45714;SDS011;31430;61.646;24.704;2023-03-22T16:03:59;38.50;;;36.10;;
45714;SDS011;31430;61.646;24.704;2023-03-22T16:06:35;38.17;;;35.78;;
45714;SDS011;31430;61.646;24.704;2023-03-22T16:11:28;41.13;;;38.58;;
45714;SDS011;31430;61.646;24.704;2023-03-22T16:16:21;43.03;;;40.33;;
45714;SDS011;31430;61.646;24.704;2023-03-22T16:18:49;40.70;;;38.17;;
45714;SDS011;31430;61.646;24.704;2023-03-22T16:21:15;40.95;;;38.40;;
45714;SDS011;31430;61.646;24.704;2023-03-22T16:23:42;40.22;;;37.72;;
45714;SDS011;31430;61.646;24.704;2023-03-22T16:26:12;38.85;;;36.45;;
45714;SDS011;31430;61.646;24.704;2023-03-22T16:28:39;38.92;;;36.53;;
45714;SDS011;31430;61.646;24.704;2023-03-22T16:33:34;41.90;;;39.30;;
45714;SDS011;31430;61.646;24.704;2023-03-22T16:38:26;41.08;;;38.53;;
45714;SDS011;31430;61.646;24.704;2023-03-22T16:40:52;39.00;;;36.60;;
45714;SDS011;31430;61.646;24.704;2023-03-22T16:45:44;41.50;;;38.90;;
45714;SDS011;31430;61.646;24.704;2023-03-22T16:48:12;41.25;;;38.67;;
45714;SDS011;31430;61.646;24.704;2023-03-22T16:50:39;39.40;;;36.95;;
45714;SDS011;31430;61.646;24.704;2023-03-22T16:53:09;39.00;;;36.58;;
45714;SDS011;31430;61.646;24.704;2023-03-22T16:55:39;38.35;;;35.95;;
45714;SDS011;31430;61.646;24.704;2023-03-22T16:58:05;39.17;;;36.75;;
45714;SDS011;31430;61.646;24.704;2023-03-22T17:03:00;42.13;;;39.53;;
45714;SDS011;31430;61.646;24.704;2023-03-22T17:05:30;40.17;;;37.67;;
45714;SDS011;31430;61.646;24.704;2023-03-22T17:07:58;39.50;;;37.03;;
45714;SDS011;31430;61.646;24.704;2023-03-22T17:10:28;38.20;;;35.80;;
45714;SDS011;31430;61.646;24.704;2023-03-22T17:12:55;38.63;;;36.22;;
45714;SDS011;31430;61.646;24.704;2023-03-22T17:17:53;39.28;;;36.83;;
45714;SDS011;31430;61.646;24.704;2023-03-22T17:20:20;37.97;;;35.60;;
45714;SDS011;31430;61.646;24.704;2023-03-22T17:22:49;37.65;;;35.30;;
45714;SDS011;31430;61.646;24.704;2023-03-22T17:25:16;38.53;;;36.13;;
45714;SDS011;31430;61.646;24.704;2023-03-22T17:27:44;37.88;;;35.50;;
45714;SDS011;31430;61.646;24.704;2023-03-22T17:30:11;38.50;;;36.10;;
45714;SDS011;31430;61.646;24.704;2023-03-22T17:32:37;37.97;;;35.60;;
45714;SDS011;31430;61.646;24.704;2023-03-22T17:35:04;38.20;;;35.80;;
45714;SDS011;31430;61.646;24.704;2023-03-22T17:37:31;37.13;;;34.83;;
45714;SDS011;31430;61.646;24.704;2023-03-22T17:39:57;37.72;;;35.38;;
45714;SDS011;31430;61.646;24.704;2023-03-22T17:42:23;38.40;;;36.00;;
45714;SDS011;31430;61.646;24.704;2023-03-22T17:44:49;37.22;;;34.92;;
45714;SDS011;31430;61.646;24.704;2023-03-22T17:47:15;37.45;;;35.13;;
45714;SDS011;31430;61.646;24.704;2023-03-22T17:49:41;37.65;;;35.30;;
45714;SDS011;31430;61.646;24.704;2023-03-22T17:54:33;40.15;;;37.65;;
45714;SDS011;31430;61.646;24.704;2023-03-22T17:56:59;37.45;;;35.13;;
45714;SDS011;31430;61.646;24.704;2023-03-22T17:59:25;37.63;;;35.30;;
45714;SDS011;31430;61.646;24.704;2023-03-22T18:01:51;38.45;;;36.05;;
45714;SDS011;31430;61.646;24.704;2023-03-22T18:04:17;39.53;;;37.05;;
45714;SDS011;31430;61.646;24.704;2023-03-22T18:06:43;37.10;;;34.80;;
45714;SDS011;31430;61.646;24.704;2023-03-22T18:11:35;39.08;;;36.65;;
45714;SDS011;31430;61.646;24.704;2023-03-22T18:16:26;39.45;;;37.00;;
45714;SDS011;31430;61.646;24.704;2023-03-22T18:21:19;41.50;;;38.90;;
45714;SDS011;31430;61.646;24.704;2023-03-22T18:26:11;39.72;;;37.22;;
45714;SDS011;31430;61.646;24.704;2023-03-22T18:28:37;39.03;;;36.60;;
45714;SDS011;31430;61.646;24.704;2023-03-22T18:31:06;40.20;;;37.70;;
45714;SDS011;31430;61.646;24.704;2023-03-22T18:33:33;38.55;;;36.15;;
45714;SDS011;31430;61.646;24.704;2023-03-22T18:35:59;38.67;;;36.28;;
45714;SDS011;31430;61.646;24.704;2023-03-22T18:40:52;38.30;;;35.90;;
45714;SDS011;31430;61.646;24.704;2023-03-22T18:43:19;38.45;;;36.05;;
45714;SDS011;31430;61.646;24.704;2023-03-22T18:45:45;39.72;;;37.22;;
45714;SDS011;31430;61.646;24.704;2023-03-22T18:48:11;39.90;;;37.40;;
45714;SDS011;31430;61.646;24.704;2023-03-22T18:50:37;38.03;;;35.63;;
45714;SDS011;31430;61.646;24.704;2023-03-22T18:53:03;37.88;;;35.50;;
45714;SDS011;31430;61.646;24.704;2023-03-22T18:57:55;40.35;;;37.85;;
45714;SDS011;31430;61.646;24.704;2023-03-22T19:00:21;38.90;;;36.50;;
45714;SDS011;31430;61.646;24.704;2023-03-22T19:02:47;37.72;;;35.38;;
45714;SDS011;31430;61.646;24.704;2023-03-22T19:07:40;41.00;;;38.45;;